Terminal Aerodrome Forecast
Issued by NWS Blacksburg, VA

Home | Current Version | Previous Version | Text Only | Print | Product List | Glossary On
Versions: 1 2 3 4 5 6 7 8 9 10 11 12 13 14 15 16 17 18 19
000
FTUS41 KRNK 231145
TAFLYH
TAF
KLYH 231145Z 2312/2412 00000KT 1 1/2SM BR OVC003
     FM231300 VRB04KT 5SM BR SCT008 OVC018
     FM231400 VRB04KT P6SM FEW018 BKN045
     FM232000 23006KT P6SM VCTS SCT045CB BKN100
     FM232300 24005KT P6SM SCT050 SCT100=

USA.gov is the U.S. government's official web portal to all federal, state and local government web resources and services.